Time;durP1;ratioP1;P1;durP2;ratioP2;P2;SDS_P1;SDS_P2;PMS_P1;PMS_P2;Temp;Humidity;BMP_temperature;BMP_pressure;BME280_temperature;BME280_humidity;BME280_pressure;Samples;Min_cycle;Max_cycle;Signal;HPM_P1;HPM_P2
2022/07/02 00:02:19;;;;;;;7.18;6.57;;;;;;;;;;5024754;28;20155;-66
2022/07/02 00:04:59;;;;;;;7.63;6.63;;;;;;;;;;5025412;28;20120;-69
2022/07/02 00:07:26;;;;;;;7.03;6.40;;;;;;;;;;5023559;28;20374;-69
2022/07/02 00:09:57;;;;;;;7.10;6.32;;;;;;;;;;5029200;28;20780;-69
2022/07/02 00:12:23;;;;;;;9.80;6.38;;;;;;;;;;5030495;28;20098;-69
2022/07/02 00:14:55;;;;;;;6.57;6.00;;;;;;;;;;5030424;28;20052;-69
2022/07/02 00:17:21;;;;;;;7.45;6.50;;;;;;;;;;5029508;28;20046;-69
2022/07/02 00:19:48;;;;;;;7.25;6.65;;;;;;;;;;5030101;28;20029;-69
2022/07/02 00:22:15;;;;;;;7.45;6.80;;;;;;;;;;5031098;28;20038;-69
2022/07/02 00:24:41;;;;;;;7.20;6.70;;;;;;;;;;5027747;28;20041;-69
2022/07/02 00:27:13;;;;;;;6.93;6.40;;;;;;;;;;5030627;28;20029;-69
2022/07/02 00:30:00;;;;;;;9.60;6.55;;;;;;;;;;5029390;28;20397;-68
2022/07/02 00:32:27;;;;;;;7.45;6.95;;;;;;;;;;5029913;28;20569;-68
2022/07/02 00:34:55;;;;;;;6.90;6.30;;;;;;;;;;5027692;28;20120;-68
2022/07/02 00:37:21;;;;;;;7.47;6.75;;;;;;;;;;5032929;28;20515;-68
2022/07/02 00:39:47;;;;;;;7.13;6.53;;;;;;;;;;5031870;28;20029;-69
2022/07/02 00:42:14;;;;;;;7.55;6.70;;;;;;;;;;5029953;28;20406;-68
2022/07/02 00:44:41;;;;;;;7.65;7.10;;;;;;;;;;5027369;28;20029;-68
2022/07/02 00:47:08;;;;;;;7.82;7.13;;;;;;;;;;5030009;28;20047;-68
2022/07/02 00:49:37;;;;;;;8.35;7.05;;;;;;;;;;5030526;28;20030;-68
2022/07/02 00:52:04;;;;;;;7.80;7.10;;;;;;;;;;5028000;28;20034;-68
2022/07/02 00:54:30;;;;;;;7.85;7.15;;;;;;;;;;5029595;28;20544;-69
2022/07/02 00:56:56;;;;;;;9.35;7.22;;;;;;;;;;5029928;28;20029;-69
2022/07/02 00:59:24;;;;;;;7.88;7.07;;;;;;;;;;5030434;28;20049;-68
2022/07/02 01:01:50;;;;;;;8.52;7.22;;;;;;;;;;5031029;28;20092;-68
2022/07/02 01:04:16;;;;;;;8.13;7.43;;;;;;;;;;5030091;28;20501;-68
2022/07/02 01:06:43;;;;;;;8.60;7.22;;;;;;;;;;5030455;28;20041;-68
2022/07/02 01:11:59;;;;;;;8.98;7.57;;;;;;;;;;5029157;28;20037;-69
2022/07/02 01:14:26;;;;;;;7.47;6.88;;;;;;;;;;5029677;28;20116;-69
2022/07/02 01:16:52;;;;;;;8.93;7.22;;;;;;;;;;5030025;28;20116;-68
2022/07/02 01:19:20;;;;;;;9.02;8.13;;;;;;;;;;5029830;28;20033;-68
2022/07/02 01:22:14;;;;;;;10.93;8.73;;;;;;;;;;5028523;28;20124;-68
2022/07/02 01:24:41;;;;;;;11.85;8.70;;;;;;;;;;5030538;28;20034;-68
2022/07/02 01:27:06;;;;;;;10.52;9.35;;;;;;;;;;5029554;28;20122;-68
2022/07/02 01:29:33;;;;;;;9.75;8.85;;;;;;;;;;5027478;28;20049;-69
2022/07/02 01:31:58;;;;;;;10.32;8.70;;;;;;;;;;5029206;28;20051;-68
2022/07/02 01:34:24;;;;;;;9.45;8.55;;;;;;;;;;5029290;28;20112;-69
2022/07/02 01:36:50;;;;;;;8.68;7.88;;;;;;;;;;5028979;28;20039;-68
2022/07/02 01:39:22;;;;;;;10.18;7.25;;;;;;;;;;5027965;28;20124;-68
2022/07/02 01:41:47;;;;;;;8.07;7.03;;;;;;;;;;5029279;28;20108;-69
2022/07/02 01:44:13;;;;;;;8.85;7.00;;;;;;;;;;5028746;28;20141;-68
2022/07/02 01:46:38;;;;;;;7.78;7.18;;;;;;;;;;5029378;28;20038;-68
2022/07/02 01:49:05;;;;;;;7.45;6.90;;;;;;;;;;5027573;28;20033;-68
2022/07/02 01:51:31;;;;;;;7.72;7.10;;;;;;;;;;5026059;28;20555;-68
2022/07/02 01:53:57;;;;;;;8.80;7.47;;;;;;;;;;5026819;28;20037;-68
2022/07/02 01:56:22;;;;;;;8.32;7.65;;;;;;;;;;5030598;28;20106;-69
2022/07/02 01:58:48;;;;;;;8.55;7.85;;;;;;;;;;5026274;28;20033;-68
2022/07/02 02:01:13;;;;;;;9.82;8.02;;;;;;;;;;5028728;28;20034;-68
2022/07/02 02:03:39;;;;;;;9.05;8.07;;;;;;;;;;5029768;28;20242;-68
2022/07/02 02:06:05;;;;;;;9.32;8.40;;;;;;;;;;5027804;28;20096;-68
2022/07/02 02:08:31;;;;;;;8.77;8.07;;;;;;;;;;5029148;28;20112;-68
2022/07/02 02:10:56;;;;;;;9.20;8.27;;;;;;;;;;5029563;28;20436;-68
2022/07/02 02:13:22;;;;;;;8.57;7.88;;;;;;;;;;5030618;28;20480;-68
2022/07/02 02:15:48;;;;;;;8.95;7.93;;;;;;;;;;5027702;28;20076;-68
2022/07/02 02:18:13;;;;;;;8.63;7.85;;;;;;;;;;5028041;28;20044;-69
2022/07/02 02:20:39;;;;;;;8.45;7.32;;;;;;;;;;5027882;28;20033;-69
2022/07/02 02:23:05;;;;;;;11.50;8.15;;;;;;;;;;5028960;28;20033;-69
2022/07/02 02:25:32;;;;;;;9.20;8.35;;;;;;;;;;5026120;28;20106;-68
2022/07/02 02:27:58;;;;;;;9.80;8.82;;;;;;;;;;5029340;28;20121;-68
2022/07/02 02:30:24;;;;;;;9.90;9.00;;;;;;;;;;5028389;28;20026;-68
2022/07/02 02:32:50;;;;;;;10.30;9.23;;;;;;;;;;5025211;28;20083;-68
2022/07/02 02:35:16;;;;;;;10.55;9.60;;;;;;;;;;5027930;28;20400;-68
2022/07/02 02:37:41;;;;;;;10.32;9.32;;;;;;;;;;5024437;28;20037;-69
2022/07/02 02:40:08;;;;;;;9.65;8.63;;;;;;;;;;5026050;28;20037;-68
2022/07/02 02:42:33;;;;;;;9.35;8.45;;;;;;;;;;5025974;28;20026;-69
2022/07/02 02:44:59;;;;;;;9.25;8.35;;;;;;;;;;5027211;28;20036;-68
2022/07/02 02:47:24;;;;;;;9.13;8.30;;;;;;;;;;5027356;28;20500;-68
2022/07/02 02:49:50;;;;;;;9.27;8.07;;;;;;;;;;5023311;28;20080;-68
2022/07/02 02:52:16;;;;;;;9.13;8.25;;;;;;;;;;5026287;28;20037;-68
2022/07/02 02:54:42;;;;;;;9.93;8.30;;;;;;;;;;5027882;28;20262;-68
2022/07/02 02:57:08;;;;;;;11.30;8.52;;;;;;;;;;5021892;28;20116;-69
2022/07/02 02:59:34;;;;;;;9.25;8.45;;;;;;;;;;5020033;28;20477;-68
2022/07/02 03:02:00;;;;;;;9.23;8.32;;;;;;;;;;5026845;28;20083;-68
2022/07/02 03:04:25;;;;;;;12.82;8.90;;;;;;;;;;5026349;28;20052;-67
2022/07/02 03:06:51;;;;;;;9.13;8.20;;;;;;;;;;5027384;28;20039;-68
2022/07/02 03:09:16;;;;;;;9.02;8.23;;;;;;;;;;5026479;28;20404;-68
2022/07/02 03:11:42;;;;;;;10.63;8.65;;;;;;;;;;5027442;28;20064;-68
2022/07/02 03:14:08;;;;;;;9.30;8.40;;;;;;;;;;5027288;28;20865;-68
2022/07/02 03:16:33;;;;;;;9.20;8.30;;;;;;;;;;5027634;28;20041;-68
2022/07/02 03:18:59;;;;;;;8.82;7.97;;;;;;;;;;5027370;28;20069;-68
2022/07/02 03:21:24;;;;;;;8.27;7.68;;;;;;;;;;5031468;28;20037;-68
2022/07/02 03:23:50;;;;;;;8.88;8.18;;;;;;;;;;5031498;28;20033;-68
2022/07/02 03:26:16;;;;;;;8.65;7.85;;;;;;;;;;5029711;28;20463;-68
2022/07/02 03:28:42;;;;;;;9.30;8.07;;;;;;;;;;5031588;28;20069;-68
2022/07/02 03:31:08;;;;;;;9.38;8.48;;;;;;;;;;5031265;28;20103;-68
2022/07/02 03:33:34;;;;;;;8.88;8.18;;;;;;;;;;5029808;28;20069;-68
2022/07/02 03:36:00;;;;;;;10.50;8.90;;;;;;;;;;5031222;28;20025;-68
2022/07/02 03:38:25;;;;;;;9.63;8.70;;;;;;;;;;5031485;28;20511;-68
2022/07/02 03:40:51;;;;;;;12.98;8.98;;;;;;;;;;5031244;28;20459;-68
2022/07/02 03:43:16;;;;;;;10.18;8.07;;;;;;;;;;5028776;28;20075;-68
2022/07/02 03:45:42;;;;;;;8.93;8.13;;;;;;;;;;5031410;28;20037;-68
2022/07/02 03:48:08;;;;;;;8.85;8.05;;;;;;;;;;5031913;28;20424;-68
2022/07/02 03:50:37;;;;;;;8.50;7.63;;;;;;;;;;5031168;28;20039;-68
2022/07/02 03:53:04;;;;;;;9.98;8.98;;;;;;;;;;5029379;28;20049;-68
2022/07/02 03:55:30;;;;;;;10.45;9.50;;;;;;;;;;5029943;28;20492;-68
2022/07/02 03:57:56;;;;;;;11.40;9.95;;;;;;;;;;5031115;28;20029;-68
2022/07/02 04:00:21;;;;;;;11.05;9.95;;;;;;;;;;5031194;28;20045;-68
2022/07/02 04:02:47;;;;;;;10.63;9.55;;;;;;;;;;5029465;28;20037;-68
2022/07/02 04:05:13;;;;;;;9.93;9.05;;;;;;;;;;5030468;28;20065;-68
2022/07/02 04:07:38;;;;;;;10.40;9.35;;;;;;;;;;5030929;28;20041;-68
2022/07/02 04:10:05;;;;;;;12.18;10.30;;;;;;;;;;5030717;28;20393;-68
2022/07/02 04:12:31;;;;;;;12.75;11.45;;;;;;;;;;5028409;28;20068;-67
2022/07/02 04:14:58;;;;;;;14.77;11.05;;;;;;;;;;5026989;28;20065;-68
2022/07/02 04:17:23;;;;;;;12.30;10.38;;;;;;;;;;5030491;28;20439;-68
2022/07/02 04:19:49;;;;;;;10.90;9.80;;;;;;;;;;5030323;28;20039;-68
2022/07/02 04:22:15;;;;;;;11.65;8.95;;;;;;;;;;5030258;28;20056;-68
2022/07/02 04:24:40;;;;;;;11.65;9.35;;;;;;;;;;5028778;28;20064;-68
2022/07/02 04:27:06;;;;;;;8.77;7.97;;;;;;;;;;5030270;28;20060;-68
2022/07/02 04:29:32;;;;;;;8.75;8.05;;;;;;;;;;5030105;28;20037;-68
2022/07/02 04:31:57;;;;;;;7.68;7.07;;;;;;;;;;5027195;28;20028;-68
2022/07/02 04:34:23;;;;;;;10.02;6.65;;;;;;;;;;5029684;28;20545;-68
2022/07/02 04:36:49;;;;;;;7.15;6.45;;;;;;;;;;5030249;28;20640;-68
2022/07/02 04:39:14;;;;;;;7.10;6.55;;;;;;;;;;5028648;28;20025;-68
2022/07/02 04:41:40;;;;;;;7.43;6.30;;;;;;;;;;5029207;28;20029;-68
2022/07/02 04:44:06;;;;;;;6.20;5.68;;;;;;;;;;5029467;28;20171;-68
2022/07/02 04:46:32;;;;;;;6.53;5.93;;;;;;;;;;5029880;28;20090;-68
2022/07/02 04:48:57;;;;;;;6.85;5.90;;;;;;;;;;5028809;28;20033;-68
2022/07/02 04:51:23;;;;;;;5.78;5.47;;;;;;;;;;5029701;28;20183;-68
2022/07/02 04:53:49;;;;;;;6.18;5.75;;;;;;;;;;5029757;28;20033;-69
2022/07/02 04:56:14;;;;;;;8.07;6.38;;;;;;;;;;5030983;28;20045;-68
2022/07/02 04:58:40;;;;;;;6.75;5.90;;;;;;;;;;5017995;28;20109;-69
2022/07/02 05:01:05;;;;;;;6.90;6.40;;;;;;;;;;5027421;28;20555;-68
2022/07/02 05:03:31;;;;;;;7.32;6.63;;;;;;;;;;5029467;28;20064;-68
2022/07/02 05:05:57;;;;;;;6.70;6.30;;;;;;;;;;5028646;28;20396;-68
2022/07/02 05:08:29;;;;;;;7.22;6.28;;;;;;;;;;5029567;28;20030;-68
2022/07/02 05:10:55;;;;;;;7.25;6.75;;;;;;;;;;5026347;28;20033;-68
2022/07/02 05:13:23;;;;;;;7.10;6.60;;;;;;;;;;5027318;28;20065;-68
2022/07/02 05:15:49;;;;;;;6.28;5.82;;;;;;;;;;5024877;28;20033;-68
2022/07/02 05:18:15;;;;;;;7.13;6.20;;;;;;;;;;5027594;28;20562;-68
2022/07/02 05:20:41;;;;;;;6.43;5.88;;;;;;;;;;5025291;28;20547;-68
2022/07/02 05:23:07;;;;;;;7.18;5.97;;;;;;;;;;5028461;28;20041;-69
2022/07/02 05:25:33;;;;;;;6.85;5.80;;;;;;;;;;5029464;28;20056;-66
2022/07/02 05:27:58;;;;;;;6.63;6.00;;;;;;;;;;5027360;28;20604;-65
2022/07/02 05:30:24;;;;;;;6.20;5.75;;;;;;;;;;5029362;28;20037;-66
2022/07/02 05:32:50;;;;;;;6.32;6.00;;;;;;;;;;5029272;28;20025;-65
2022/07/02 05:35:15;;;;;;;6.65;6.15;;;;;;;;;;5025181;28;20072;-65
2022/07/02 05:37:41;;;;;;;6.43;5.93;;;;;;;;;;5027274;28;20041;-65
2022/07/02 05:40:07;;;;;;;6.57;5.97;;;;;;;;;;5024991;28;20104;-65
2022/07/02 05:42:33;;;;;;;6.53;6.05;;;;;;;;;;5022104;28;20030;-66
2022/07/02 05:44:59;;;;;;;6.40;6.00;;;;;;;;;;5028893;28;20045;-65
2022/07/02 05:47:25;;;;;;;9.40;6.13;;;;;;;;;;5025642;28;20033;-68
2022/07/02 05:49:50;;;;;;;5.97;5.57;;;;;;;;;;5027873;28;20563;-69
2022/07/02 05:52:17;;;;;;;6.32;5.93;;;;;;;;;;5029099;28;20041;-69
2022/07/02 05:54:45;;;;;;;7.45;6.25;;;;;;;;;;5029838;28;20044;-68
2022/07/02 05:57:11;;;;;;;6.75;6.07;;;;;;;;;;5029419;28;20038;-69
2022/07/02 05:59:37;;;;;;;6.40;6.00;;;;;;;;;;5024716;28;20041;-68
2022/07/02 06:02:06;;;;;;;6.53;6.13;;;;;;;;;;5028600;28;20108;-68
2022/07/02 06:04:32;;;;;;;6.00;5.50;;;;;;;;;;5024605;28;20076;-68
2022/07/02 06:09:42;;;;;;;6.10;5.70;;;;;;;;;;5029210;28;20044;-68
2022/07/02 06:12:08;;;;;;;5.88;5.32;;;;;;;;;;5028982;28;20034;-73
2022/07/02 06:14:34;;;;;;;5.50;5.20;;;;;;;;;;5027298;28;20033;-72
2022/07/02 06:17:00;;;;;;;5.85;5.35;;;;;;;;;;5028006;28;20171;-72
2022/07/02 06:19:26;;;;;;;5.78;5.47;;;;;;;;;;5028149;28;20515;-71
2022/07/02 06:21:51;;;;;;;6.10;5.70;;;;;;;;;;5028601;28;20220;-67
2022/07/02 06:24:17;;;;;;;5.82;5.47;;;;;;;;;;5024566;28;20404;-68
2022/07/02 06:26:43;;;;;;;5.80;5.50;;;;;;;;;;5028184;28;20044;-68
2022/07/02 06:29:09;;;;;;;5.65;5.35;;;;;;;;;;5028029;28;20051;-68
2022/07/02 06:31:36;;;;;;;6.10;5.60;;;;;;;;;;5028295;28;20037;-68
2022/07/02 06:34:02;;;;;;;5.82;5.53;;;;;;;;;;5024110;28;20037;-68
2022/07/02 06:36:28;;;;;;;5.88;5.50;;;;;;;;;;5026508;28;20030;-68
2022/07/02 06:38:54;;;;;;;5.40;5.00;;;;;;;;;;5027805;28;20033;-68
2022/07/02 06:44:05;;;;;;;5.78;5.38;;;;;;;;;;5025468;28;20167;-68
2022/07/02 06:46:32;;;;;;;5.50;5.20;;;;;;;;;;5027600;28;20126;-69
2022/07/02 06:48:58;;;;;;;6.20;5.13;;;;;;;;;;5027836;28;20033;-68
2022/07/02 06:51:23;;;;;;;5.07;4.72;;;;;;;;;;5026502;28;20037;-68
2022/07/02 06:53:49;;;;;;;5.90;5.50;;;;;;;;;;5023039;28;20041;-68
2022/07/02 06:56:14;;;;;;;5.78;5.28;;;;;;;;;;5027530;28;20497;-68
2022/07/02 06:58:40;;;;;;;5.72;5.32;;;;;;;;;;5027436;28;20037;-68
2022/07/02 07:01:05;;;;;;;5.70;5.15;;;;;;;;;;5026360;28;20029;-68
2022/07/02 07:03:31;;;;;;;5.40;5.10;;;;;;;;;;5027307;28;20040;-69
2022/07/02 07:05:56;;;;;;;5.10;4.70;;;;;;;;;;5027469;28;20040;-69
2022/07/02 07:08:22;;;;;;;5.25;4.85;;;;;;;;;;5027792;28;20052;-68
2022/07/02 07:10:47;;;;;;;4.93;4.70;;;;;;;;;;5024568;28;20319;-69
2022/07/02 07:13:13;;;;;;;6.30;5.15;;;;;;;;;;5027561;28;20052;-69
2022/07/02 07:15:39;;;;;;;5.00;4.70;;;;;;;;;;5027218;28;20116;-69
2022/07/02 07:18:04;;;;;;;4.47;4.18;;;;;;;;;;5027700;28;20492;-69
2022/07/02 07:20:31;;;;;;;4.78;4.43;;;;;;;;;;5025409;28;20044;-69
2022/07/02 07:22:56;;;;;;;4.88;4.57;;;;;;;;;;5026827;28;20061;-69
2022/07/02 07:25:23;;;;;;;5.05;4.75;;;;;;;;;;5026748;28;20372;-69
2022/07/02 07:27:48;;;;;;;4.78;4.50;;;;;;;;;;5024931;28;20029;-69
2022/07/02 07:30:15;;;;;;;5.00;4.70;;;;;;;;;;5026925;28;20040;-69
2022/07/02 07:32:41;;;;;;;4.80;4.50;;;;;;;;;;5022801;28;20033;-69
2022/07/02 07:35:07;;;;;;;4.80;4.57;;;;;;;;;;5025913;28;20064;-69
2022/07/02 07:37:35;;;;;;;4.43;4.22;;;;;;;;;;5024286;28;20500;-69
2022/07/02 07:40:05;;;;;;;4.50;4.20;;;;;;;;;;5027303;28;20044;-69
2022/07/02 07:42:31;;;;;;;4.55;4.35;;;;;;;;;;5026934;28;20052;-69
2022/07/02 07:44:57;;;;;;;4.57;4.38;;;;;;;;;;5022327;28;20455;-69
2022/07/02 07:47:23;;;;;;;4.95;4.65;;;;;;;;;;5027061;28;20045;-69
2022/07/02 07:49:48;;;;;;;5.10;4.70;;;;;;;;;;5026968;28;20448;-68
2022/07/02 07:52:14;;;;;;;5.00;4.60;;;;;;;;;;5026978;28;20037;-69
2022/07/02 07:54:40;;;;;;;5.05;4.75;;;;;;;;;;5024970;28;20073;-69
2022/07/02 07:57:06;;;;;;;4.72;4.53;;;;;;;;;;5027221;28;20104;-69
2022/07/02 07:59:31;;;;;;;5.18;4.88;;;;;;;;;;5026850;28;20045;-69
2022/07/02 08:01:57;;;;;;;5.05;4.60;;;;;;;;;;5023372;28;20040;-69
2022/07/02 08:04:22;;;;;;;4.75;4.47;;;;;;;;;;5025882;28;20053;-69
2022/07/02 08:06:48;;;;;;;4.50;4.20;;;;;;;;;;5030626;28;20030;-69
2022/07/02 08:09:14;;;;;;;4.50;4.30;;;;;;;;;;5030744;28;20038;-69
2022/07/02 08:11:40;;;;;;;4.55;4.25;;;;;;;;;;5030152;28;20044;-69
2022/07/02 08:14:05;;;;;;;4.55;4.25;;;;;;;;;;5030122;28;20049;-69
2022/07/02 08:16:31;;;;;;;4.40;4.20;;;;;;;;;;5030459;28;20542;-69
2022/07/02 08:18:57;;;;;;;4.30;4.10;;;;;;;;;;5030226;28;20083;-69
2022/07/02 08:21:23;;;;;;;4.45;4.15;;;;;;;;;;5027866;28;20025;-69
2022/07/02 08:23:48;;;;;;;4.40;4.10;;;;;;;;;;5029713;28;20072;-69
2022/07/02 08:26:14;;;;;;;4.75;4.40;;;;;;;;;;5029959;28;20084;-69
2022/07/02 08:28:40;;;;;;;4.30;4.10;;;;;;;;;;5030225;28;20037;-69
2022/07/02 08:31:06;;;;;;;4.47;4.18;;;;;;;;;;5029743;28;20044;-69
2022/07/02 08:33:31;;;;;;;4.60;4.30;;;;;;;;;;5029476;28;20044;-69
2022/07/02 08:35:57;;;;;;;4.88;4.47;;;;;;;;;;5029967;28;20366;-69
2022/07/02 08:38:23;;;;;;;4.50;4.30;;;;;;;;;;5027671;28;20385;-69
2022/07/02 08:40:49;;;;;;;4.10;3.90;;;;;;;;;;5029558;28;20039;-68
2022/07/02 08:43:16;;;;;;;4.40;4.20;;;;;;;;;;5029970;28;20099;-68
2022/07/02 08:45:43;;;;;;;4.35;4.05;;;;;;;;;;5024792;28;20037;-69
2022/07/02 08:48:10;;;;;;;4.30;4.10;;;;;;;;;;5028958;28;20084;-69
2022/07/02 08:50:36;;;;;;;4.13;3.90;;;;;;;;;;5029303;28;20041;-68
2022/07/02 08:53:06;;;;;;;4.55;4.25;;;;;;;;;;5028578;28;20578;-68
2022/07/02 08:55:33;;;;;;;4.20;3.90;;;;;;;;;;5029906;28;20029;-69
2022/07/02 08:57:59;;;;;;;4.38;3.92;;;;;;;;;;5029613;28;20039;-68
2022/07/02 09:00:26;;;;;;;4.22;4.03;;;;;;;;;;5030221;28;20061;-68
2022/07/02 09:02:53;;;;;;;4.70;4.00;;;;;;;;;;5028138;28;20074;-68
2022/07/02 09:05:24;;;;;;;3.80;3.60;;;;;;;;;;5029954;28;20045;-68
2022/07/02 09:07:50;;;;;;;4.38;4.07;;;;;;;;;;5029892;28;20037;-68
2022/07/02 09:10:18;;;;;;;4.30;4.10;;;;;;;;;;5029768;28;20041;-68
2022/07/02 09:12:45;;;;;;;4.30;4.10;;;;;;;;;;5027663;28;20042;-69
2022/07/02 09:15:12;;;;;;;4.32;4.13;;;;;;;;;;5029738;28;20429;-69
2022/07/02 09:17:41;;;;;;;3.95;3.67;;;;;;;;;;5030246;28;20044;-69
2022/07/02 09:20:08;;;;;;;3.92;3.75;;;;;;;;;;5027967;28;20038;-69
2022/07/02 09:22:40;;;;;;;3.88;3.67;;;;;;;;;;5028963;28;20515;-69
2022/07/02 09:25:12;;;;;;;4.07;3.88;;;;;;;;;;5028692;28;20404;-69
2022/07/02 09:27:38;;;;;;;4.85;4.22;;;;;;;;;;5028342;28;20057;-68
2022/07/02 09:30:05;;;;;;;4.07;3.88;;;;;;;;;;5029409;28;20487;-69
2022/07/02 09:32:40;;;;;;;3.97;3.78;;;;;;;;;;5028784;28;20059;-70
2022/07/02 09:35:06;;;;;;;6.22;4.18;;;;;;;;;;5029207;28;20030;-68
2022/07/02 09:37:32;;;;;;;4.30;4.10;;;;;;;;;;5023035;28;20033;-69
2022/07/02 09:40:02;;;;;;;4.50;4.10;;;;;;;;;;5026668;28;20033;-69
2022/07/02 09:42:29;;;;;;;4.43;4.00;;;;;;;;;;5026844;28;20136;-68
2022/07/02 09:44:56;;;;;;;4.25;3.95;;;;;;;;;;5029718;28;20042;-68
2022/07/02 09:47:32;;;;;;;4.50;4.20;;;;;;;;;;5028314;28;20041;-68
2022/07/02 09:50:02;;;;;;;4.57;4.25;;;;;;;;;;5028002;28;20640;-69
2022/07/02 09:52:27;;;;;;;4.05;3.85;;;;;;;;;;5028006;28;20026;-68
2022/07/02 09:54:53;;;;;;;4.10;3.90;;;;;;;;;;5028537;28;20186;-69
2022/07/02 09:57:18;;;;;;;4.28;4.07;;;;;;;;;;5026793;28;20037;-68
2022/07/02 09:59:44;;;;;;;4.28;4.00;;;;;;;;;;5010674;28;20043;-70
2022/07/02 10:02:25;;;;;;;4.10;3.90;;;;;;;;;;5024857;28;20033;-69
2022/07/02 10:04:55;;;;;;;4.22;3.92;;;;;;;;;;5028862;28;20030;-70
2022/07/02 10:07:23;;;;;;;4.63;4.30;;;;;;;;;;5027435;28;20045;-68
2022/07/02 10:09:50;;;;;;;4.68;3.83;;;;;;;;;;5028490;28;20083;-68
2022/07/02 10:12:17;;;;;;;4.10;3.90;;;;;;;;;;5028479;28;20098;-69
2022/07/02 10:14:45;;;;;;;7.47;3.95;;;;;;;;;;5028196;28;20046;-68
2022/07/02 10:17:13;;;;;;;4.20;3.80;;;;;;;;;;5026821;28;20044;-68
2022/07/02 10:19:39;;;;;;;6.07;3.70;;;;;;;;;;5027814;28;20029;-69
2022/07/02 10:22:06;;;;;;;3.90;3.70;;;;;;;;;;5023005;28;20507;-68
2022/07/02 10:24:32;;;;;;;3.75;3.50;;;;;;;;;;5024584;28;20061;-69
2022/07/02 10:26:59;;;;;;;3.65;3.47;;;;;;;;;;5025651;28;20220;-69
2022/07/02 10:29:26;;;;;;;4.00;3.70;;;;;;;;;;5023002;28;20033;-69
2022/07/02 10:32:22;;;;;;;4.15;3.95;;;;;;;;;;5026257;28;20037;-69
2022/07/02 10:35:01;;;;;;;4.53;4.20;;;;;;;;;;5026704;28;20083;-68
2022/07/02 10:37:26;;;;;;;4.20;4.00;;;;;;;;;;5024087;28;20041;-68
2022/07/02 10:39:59;;;;;;;4.05;3.85;;;;;;;;;;5026859;28;20048;-69
2022/07/02 10:42:41;;;;;;;4.50;4.20;;;;;;;;;;5025439;28;20048;-68
2022/07/02 10:45:17;;;;;;;4.10;3.90;;;;;;;;;;5025609;28;20559;-69
2022/07/02 10:48:02;;;;;;;4.10;3.90;;;;;;;;;;5023261;28;20049;-68
2022/07/02 10:50:34;;;;;;;4.28;3.92;;;;;;;;;;5025701;28;20056;-68
2022/07/02 10:53:15;;;;;;;4.07;3.67;;;;;;;;;;5025318;28;20116;-69
2022/07/02 10:55:44;;;;;;;4.40;4.00;;;;;;;;;;5024363;28;20175;-69
2022/07/02 10:58:19;;;;;;;4.07;3.88;;;;;;;;;;5023918;28;20033;-68
2022/07/02 11:00:45;;;;;;;4.63;3.95;;;;;;;;;;5021930;28;20037;-68
2022/07/02 11:03:17;;;;;;;4.28;3.97;;;;;;;;;;5025039;28;20037;-68
2022/07/02 11:06:02;;;;;;;4.05;3.80;;;;;;;;;;5024512;28;20036;-68
2022/07/02 11:08:36;;;;;;;4.00;3.70;;;;;;;;;;5026154;28;20113;-69
2022/07/02 11:11:02;;;;;;;4.07;3.78;;;;;;;;;;5025640;28;20029;-68
2022/07/02 11:13:40;;;;;;;3.60;3.42;;;;;;;;;;5025693;28;20441;-68
2022/07/02 11:16:22;;;;;;;4.25;3.88;;;;;;;;;;5024826;28;20072;-68
2022/07/02 11:18:48;;;;;;;3.90;3.70;;;;;;;;;;5022550;28;20483;-68
2022/07/02 11:21:15;;;;;;;4.20;4.00;;;;;;;;;;5025676;28;20124;-69
2022/07/02 11:23:41;;;;;;;4.38;4.10;;;;;;;;;;5023744;28;20516;-68
2022/07/02 11:26:09;;;;;;;4.07;3.80;;;;;;;;;;5025421;28;20041;-68
2022/07/02 11:28:35;;;;;;;;;;;;;;;;;;5026193;28;20034;-68
2022/07/02 11:31:06;;;;;;;4.60;4.20;;;;;;;;;;5023331;28;19967;-68
2022/07/02 11:33:32;;;;;;;4.78;4.38;;;;;;;;;;5022992;28;20033;-68
2022/07/02 11:35:57;;;;;;;4.55;4.30;;;;;;;;;;5022540;28;20037;-68
2022/07/02 11:38:23;;;;;;;4.50;4.20;;;;;;;;;;5024382;28;20048;-69
2022/07/02 11:40:49;;;;;;;4.30;4.10;;;;;;;;;;5028554;28;20041;-68
2022/07/02 11:43:19;;;;;;;4.40;4.10;;;;;;;;;;5028811;28;20464;-69
2022/07/02 11:45:48;;;;;;;4.55;4.25;;;;;;;;;;5030958;28;20033;-68
2022/07/02 11:48:21;;;;;;;4.13;3.92;;;;;;;;;;5030311;28;20144;-69
2022/07/02 11:51:00;;;;;;;4.15;3.95;;;;;;;;;;5030995;28;20033;-69
2022/07/02 11:53:26;;;;;;;4.80;4.50;;;;;;;;;;5030284;28;20077;-68
2022/07/02 11:55:52;;;;;;;4.82;4.55;;;;;;;;;;5029893;28;20057;-68
2022/07/02 11:58:18;;;;;;;4.57;4.28;;;;;;;;;;5030718;28;20048;-69
2022/07/02 12:00:44;;;;;;;4.57;4.28;;;;;;;;;;5030525;28;20029;-68
2022/07/02 12:03:11;;;;;;;4.78;4.40;;;;;;;;;;5027978;28;20025;-69
2022/07/02 12:05:49;;;;;;;4.70;4.50;;;;;;;;;;5030727;28;20078;-69
2022/07/02 12:08:15;;;;;;;4.75;4.40;;;;;;;;;;5031203;28;20037;-69
2022/07/02 12:10:41;;;;;;;5.10;4.43;;;;;;;;;;5030382;28;20037;-69
2022/07/02 12:13:10;;;;;;;4.32;4.13;;;;;;;;;;5029313;28;20041;-68
2022/07/02 12:15:44;;;;;;;4.60;4.40;;;;;;;;;;5029589;28;20099;-68
2022/07/02 12:18:20;;;;;;;4.90;4.55;;;;;;;;;;5030011;28;20099;-68
2022/07/02 12:20:46;;;;;;;6.03;4.70;;;;;;;;;;5030499;28;20045;-68
2022/07/02 12:23:13;;;;;;;4.70;4.50;;;;;;;;;;5009083;28;20025;-68
2022/07/02 12:25:45;;;;;;;5.07;4.68;;;;;;;;;;5030046;28;20038;-68
2022/07/02 12:30:56;;;;;;;4.90;4.60;;;;;;;;;;5023827;28;20040;-68
2022/07/02 12:33:35;;;;;;;4.80;4.50;;;;;;;;;;5027552;28;20033;-69
2022/07/02 12:36:03;;;;;;;4.50;4.30;;;;;;;;;;5024767;28;20516;-68
2022/07/02 12:38:29;;;;;;;5.13;4.70;;;;;;;;;;5028313;28;20033;-68
2022/07/02 12:41:01;;;;;;;4.53;4.32;;;;;;;;;;5028916;28;20041;-68
2022/07/02 12:43:26;;;;;;;4.68;4.47;;;;;;;;;;5026251;28;20033;-68
2022/07/02 12:46:02;;;;;;;4.75;4.40;;;;;;;;;;5027807;28;20029;-68
2022/07/02 12:48:28;;;;;;;5.15;4.80;;;;;;;;;;5026252;28;20045;-68
2022/07/02 12:50:53;;;;;;;5.20;4.90;;;;;;;;;;5025456;28;20037;-68
2022/07/02 12:53:20;;;;;;;5.22;4.72;;;;;;;;;;5027603;28;20049;-68
2022/07/02 12:55:58;;;;;;;4.82;4.50;;;;;;;;;;5028224;28;20034;-68
2022/07/02 12:58:25;;;;;;;4.83;4.53;;;;;;;;;;5027965;28;20501;-68
2022/07/02 13:00:51;;;;;;;4.88;4.57;;;;;;;;;;5025888;28;20756;-68
2022/07/02 13:03:19;;;;;;;5.03;4.55;;;;;;;;;;5026271;28;20033;-67
2022/07/02 13:05:55;;;;;;;4.78;4.47;;;;;;;;;;5027695;28;20037;-68
2022/07/02 13:08:23;;;;;;;4.70;4.40;;;;;;;;;;5027038;28;20045;-69
2022/07/02 13:10:50;;;;;;;4.75;4.45;;;;;;;;;;5024163;28;20040;-67
2022/07/02 13:13:17;;;;;;;5.30;4.90;;;;;;;;;;5025687;28;20060;-68
2022/07/02 13:15:43;;;;;;;5.30;4.80;;;;;;;;;;5027473;28;20489;-69
2022/07/02 13:18:09;;;;;;;4.70;4.50;;;;;;;;;;5027979;28;20021;-69
2022/07/02 13:20:34;;;;;;;5.50;5.20;;;;;;;;;;5027701;28;21532;-69
2022/07/02 13:23:00;;;;;;;5.50;5.20;;;;;;;;;;5029177;28;20064;-69
2022/07/02 13:25:26;;;;;;;5.15;4.82;;;;;;;;;;5029005;28;20029;-68
2022/07/02 13:27:52;;;;;;;5.10;4.80;;;;;;;;;;5028341;28;20108;-67
2022/07/02 13:30:18;;;;;;;4.80;4.60;;;;;;;;;;5028402;28;20030;-69
2022/07/02 13:32:46;;;;;;;5.50;5.20;;;;;;;;;;5028345;28;20179;-69
2022/07/02 13:35:12;;;;;;;5.20;4.90;;;;;;;;;;5025697;28;20500;-69
2022/07/02 13:37:39;;;;;;;5.15;4.88;;;;;;;;;;5027951;28;20033;-69
2022/07/02 13:40:07;;;;;;;4.93;4.53;;;;;;;;;;5027452;28;20045;-69
2022/07/02 13:42:34;;;;;;;5.40;4.80;;;;;;;;;;5028871;28;20117;-69
2022/07/02 13:45:01;;;;;;;5.20;4.90;;;;;;;;;;5026044;28;20171;-68
2022/07/02 13:47:27;;;;;;;4.95;4.75;;;;;;;;;;5028296;28;20033;-68
2022/07/02 13:49:52;;;;;;;5.10;4.80;;;;;;;;;;5028757;28;20036;-68
2022/07/02 13:52:18;;;;;;;5.20;4.90;;;;;;;;;;5025708;28;20033;-68
2022/07/02 13:54:43;;;;;;;5.25;4.75;;;;;;;;;;5028229;28;20037;-69
2022/07/02 13:57:09;;;;;;;5.57;5.07;;;;;;;;;;5027371;28;20037;-68
2022/07/02 13:59:35;;;;;;;5.07;4.78;;;;;;;;;;5026177;28;20037;-68
2022/07/02 14:02:00;;;;;;;5.28;4.90;;;;;;;;;;5025434;28;20033;-68
2022/07/02 14:04:26;;;;;;;5.15;4.78;;;;;;;;;;5027507;28;20037;-69
2022/07/02 14:06:52;;;;;;;5.15;4.78;;;;;;;;;;5025190;28;20037;-68
2022/07/02 14:09:18;;;;;;;5.97;4.70;;;;;;;;;;5026940;28;20033;-68
2022/07/02 14:11:43;;;;;;;5.18;4.40;;;;;;;;;;5026735;28;20033;-69
2022/07/02 14:14:09;;;;;;;4.70;4.50;;;;;;;;;;5025055;28;20044;-68
2022/07/02 14:16:35;;;;;;;5.00;4.70;;;;;;;;;;5020258;28;20048;-68
2022/07/02 14:19:01;;;;;;;4.85;4.45;;;;;;;;;;5024600;28;20040;-68
2022/07/02 14:21:27;;;;;;;5.53;5.00;;;;;;;;;;5024988;28;20029;-69
2022/07/02 14:23:53;;;;;;;5.25;4.95;;;;;;;;;;5023051;28;20636;-68
2022/07/02 14:26:19;;;;;;;5.43;5.03;;;;;;;;;;5025232;28;20532;-68
2022/07/02 14:28:44;;;;;;;5.00;4.80;;;;;;;;;;5025912;28;20123;-69
2022/07/02 14:31:11;;;;;;;4.85;4.55;;;;;;;;;;5024834;28;20037;-68
2022/07/02 14:33:36;;;;;;;5.47;5.07;;;;;;;;;;5023404;28;20048;-68
2022/07/02 14:36:03;;;;;;;5.20;4.90;;;;;;;;;;5026660;28;20037;-68
2022/07/02 14:38:28;;;;;;;4.82;4.63;;;;;;;;;;5026734;28;20112;-68
2022/07/02 14:41:30;;;;;;;4.78;4.40;;;;;;;;;;5025961;28;20112;-68
2022/07/02 14:43:39;;;;;;;5.00;4.50;;;;;;;;;;5024092;28;20041;-68
2022/07/02 14:46:05;;;;;;;4.90;4.50;;;;;;;;;;5024784;28;20044;-68
2022/07/02 14:48:31;;;;;;;4.30;4.10;;;;;;;;;;5025978;28;20041;-68
2022/07/02 14:50:56;;;;;;;4.75;4.50;;;;;;;;;;5025707;28;20037;-68
2022/07/02 14:53:22;;;;;;;4.57;4.30;;;;;;;;;;5023880;28;20382;-68
2022/07/02 14:55:47;;;;;;;4.88;4.57;;;;;;;;;;5022676;28;20029;-68